Time;durP1;ratioP1;P1;durP2;ratioP2;P2;SDS_P1;SDS_P2;PMS_P1;PMS_P2;Temp;Humidity;BMP_temperature;BMP_pressure;BME280_temperature;BME280_humidity;BME280_pressure;Samples;Min_cycle;Max_cycle;Signal;HPM_P1;HPM_P2
2022/01/11 00:02:12;;;;;;;0.20;0.20;;;;;;;;;;5074320;28;20036;-62
2022/01/11 00:04:38;;;;;;;0.13;0.13;;;;;;;;;;5056998;28;20115;-62
2022/01/11 00:07:06;;;;;;;0.20;0.20;;;;;;;;;;5074688;28;20120;-64
2022/01/11 00:09:38;;;;;;;0.10;0.10;;;;;;;;;;5057150;28;20020;-62
2022/01/11 00:12:06;;;;;;;0.10;0.10;;;;;;;;;;5040820;28;20040;-63
2022/01/11 00:14:32;;;;;;;0.17;0.17;;;;;;;;;;5045888;28;20547;-63
2022/01/11 00:16:59;;;;;;;0.10;0.10;;;;;;;;;;5094129;28;20119;-62
2022/01/11 00:19:24;;;;;;;0.17;0.17;;;;;;;;;;5094910;28;20103;-63
2022/01/11 00:21:50;;;;;;;0.20;0.20;;;;;;;;;;5076728;28;20123;-62
2022/01/11 00:24:32;;;;;;;0.20;0.20;;;;;;;;;;5060331;28;20035;-61
2022/01/11 00:27:06;;;;;;;0.20;0.20;;;;;;;;;;5077047;28;20123;-62
2022/01/11 00:29:33;;;;;;;0.20;0.20;;;;;;;;;;5076958;28;20060;-63
2022/01/11 00:32:08;;;;;;;0.20;0.20;;;;;;;;;;5076858;28;20028;-64
2022/01/11 00:35:10;;;;;;;0.20;0.20;;;;;;;;;;5076901;28;20032;-63
2022/01/11 00:37:27;;;;;;;0.20;0.20;;;;;;;;;;5083493;28;20463;-64
2022/01/11 00:39:53;;;;;;;0.20;0.20;;;;;;;;;;5056681;28;20032;-62
2022/01/11 00:42:19;;;;;;;0.20;0.20;;;;;;;;;;5074553;28;20048;-62
2022/01/11 00:44:45;;;;;;;0.20;0.20;;;;;;;;;;5039994;28;20032;-62
2022/01/11 00:47:12;;;;;;;0.10;0.10;;;;;;;;;;5040237;28;20111;-62
2022/01/11 00:49:40;;;;;;;0.20;0.20;;;;;;;;;;5074037;28;20036;-63
2022/01/11 00:52:06;;;;;;;0.20;0.20;;;;;;;;;;5039483;28;20068;-63
2022/01/11 00:54:31;;;;;;;0.20;0.20;;;;;;;;;;5055679;28;20032;-63
2022/01/11 00:56:57;;;;;;;0.20;0.20;;;;;;;;;;5073871;28;20035;-64
2022/01/11 00:59:25;;;;;;;0.20;0.20;;;;;;;;;;5074385;28;20039;-65
2022/01/11 01:01:51;;;;;;;0.20;0.20;;;;;;;;;;5055558;28;20052;-64
2022/01/11 01:04:17;;;;;;;0.20;0.20;;;;;;;;;;5073816;28;20071;-63
2022/01/11 01:06:48;;;;;;;0.10;0.10;;;;;;;;;;5074154;28;20033;-63
2022/01/11 01:09:21;;;;;;;0.17;0.17;;;;;;;;;;5056298;28;20048;-63
2022/01/11 01:11:51;;;;;;;0.20;0.20;;;;;;;;;;5056929;28;20036;-62
2022/01/11 01:14:18;;;;;;;0.20;0.20;;;;;;;;;;5040003;28;20113;-63
2022/01/11 01:16:45;;;;;;;0.17;0.17;;;;;;;;;;5056259;28;20040;-63
2022/01/11 01:19:31;;;;;;;0.20;0.20;;;;;;;;;;5073564;28;20048;-62
2022/01/11 01:21:57;;;;;;;0.30;0.30;;;;;;;;;;5056005;28;20040;-63
2022/01/11 01:24:22;;;;;;;0.10;0.10;;;;;;;;;;5039412;28;20036;-63
2022/01/11 01:26:48;;;;;;;0.10;0.10;;;;;;;;;;5056041;28;20506;-63
2022/01/11 01:29:14;;;;;;;0.20;0.20;;;;;;;;;;5073829;28;20032;-63
2022/01/11 01:31:40;;;;;;;0.20;0.20;;;;;;;;;;5055894;28;20029;-64
2022/01/11 01:34:05;;;;;;;0.20;0.20;;;;;;;;;;5056174;28;20043;-63
2022/01/11 01:36:31;;;;;;;0.17;0.17;;;;;;;;;;5073900;28;20387;-62
2022/01/11 01:38:56;;;;;;;0.30;0.30;;;;;;;;;;5073808;28;20033;-65
2022/01/11 01:41:22;;;;;;;0.20;0.20;;;;;;;;;;5039229;28;20036;-63
2022/01/11 01:43:50;;;;;;;0.20;0.20;;;;;;;;;;5073788;28;20036;-62
2022/01/11 01:46:15;;;;;;;0.20;0.20;;;;;;;;;;5073843;28;20029;-62
2022/01/11 01:48:41;;;;;;;0.20;0.20;;;;;;;;;;5055902;28;20091;-62
2022/01/11 01:51:08;;;;;;;0.20;0.20;;;;;;;;;;5055761;28;20491;-62
2022/01/11 01:53:34;;;;;;;0.20;0.20;;;;;;;;;;5038132;28;20526;-63
2022/01/11 01:56:00;;;;;;;0.20;0.20;;;;;;;;;;5037672;28;20121;-63
2022/01/11 01:58:25;;;;;;;0.20;0.20;;;;;;;;;;5054755;28;20480;-62
2022/01/11 02:01:01;;;;;;;0.10;0.10;;;;;;;;;;5038658;28;20036;-62
2022/01/11 02:03:29;;;;;;;0.10;0.10;;;;;;;;;;5038782;28;20032;-64
2022/01/11 02:05:55;;;;;;;0.20;0.20;;;;;;;;;;5038521;28;20032;-66
2022/01/11 02:08:20;;;;;;;0.20;0.20;;;;;;;;;;5038460;28;20036;-63
2022/01/11 02:10:46;;;;;;;0.20;0.20;;;;;;;;;;5038912;28;20391;-62
2022/01/11 02:13:12;;;;;;;0.10;0.10;;;;;;;;;;5073167;28;20047;-63
2022/01/11 02:15:38;;;;;;;0.20;0.20;;;;;;;;;;5073326;28;20463;-64
2022/01/11 02:18:14;;;;;;;0.20;0.20;;;;;;;;;;5055317;28;20403;-61
2022/01/11 02:20:44;;;;;;;0.20;0.20;;;;;;;;;;5055518;28;20499;-63
2022/01/11 02:23:12;;;;;;;0.10;0.10;;;;;;;;;;5055374;28;20089;-63
2022/01/11 02:25:38;;;;;;;0.20;0.20;;;;;;;;;;5039045;28;20040;-63
2022/01/11 02:28:05;;;;;;;0.20;0.20;;;;;;;;;;5073259;28;20029;-63
2022/01/11 02:30:33;;;;;;;0.20;0.20;;;;;;;;;;5038994;28;20028;-62
2022/01/11 02:32:59;;;;;;;0.17;0.17;;;;;;;;;;5038193;28;20127;-63
2022/01/11 02:35:27;;;;;;;0.10;0.10;;;;;;;;;;5055048;28;20039;-63
2022/01/11 02:37:53;;;;;;;0.10;0.10;;;;;;;;;;5038449;28;20391;-63
2022/01/11 02:40:18;;;;;;;0.20;0.20;;;;;;;;;;5055127;28;20028;-62
2022/01/11 02:42:44;;;;;;;0.20;0.20;;;;;;;;;;5072864;28;20388;-62
2022/01/11 02:45:16;;;;;;;0.20;0.20;;;;;;;;;;5055003;28;20102;-62
2022/01/11 02:47:46;;;;;;;0.10;0.10;;;;;;;;;;5054847;28;20074;-62
2022/01/11 02:50:15;;;;;;;0.20;0.20;;;;;;;;;;5072563;28;20064;-62
2022/01/11 02:52:44;;;;;;;0.10;0.10;;;;;;;;;;5037643;28;20032;-63
2022/01/11 02:55:11;;;;;;;0.10;0.10;;;;;;;;;;5053789;28;20020;-62
2022/01/11 02:57:38;;;;;;;0.20;0.20;;;;;;;;;;5038099;28;20037;-63
2022/01/11 03:00:12;;;;;;;0.20;0.20;;;;;;;;;;5053050;28;20040;-64
2022/01/11 03:02:38;;;;;;;0.20;0.20;;;;;;;;;;5037406;28;20124;-63
2022/01/11 03:05:08;;;;;;;0.20;0.20;;;;;;;;;;5037662;28;20111;-65
2022/01/11 03:07:34;;;;;;;0.20;0.20;;;;;;;;;;5054514;28;20063;-63
2022/01/11 03:10:05;;;;;;;0.10;0.10;;;;;;;;;;5054593;28;20037;-63
2022/01/11 03:12:43;;;;;;;0.15;0.15;;;;;;;;;;5039185;28;20040;-63
2022/01/11 03:15:09;;;;;;;0.20;0.20;;;;;;;;;;5054282;28;20063;-62
2022/01/11 03:17:35;;;;;;;0.10;0.10;;;;;;;;;;5054769;28;20036;-64
2022/01/11 03:20:02;;;;;;;0.15;0.15;;;;;;;;;;5054689;28;20028;-63
2022/01/11 03:22:28;;;;;;;0.20;0.20;;;;;;;;;;5054682;28;20044;-63
2022/01/11 03:24:53;;;;;;;0.35;0.35;;;;;;;;;;5037633;28;20548;-63
2022/01/11 03:27:21;;;;;;;0.10;0.10;;;;;;;;;;5053973;28;20032;-62
2022/01/11 03:29:47;;;;;;;0.20;0.20;;;;;;;;;;5054055;28;20032;-63
2022/01/11 03:32:16;;;;;;;0.20;0.20;;;;;;;;;;5054069;28;20044;-63
2022/01/11 03:34:45;;;;;;;0.10;0.10;;;;;;;;;;5054217;28;20055;-63
2022/01/11 03:37:17;;;;;;;0.15;0.15;;;;;;;;;;5054243;28;20044;-63
2022/01/11 03:39:43;;;;;;;0.10;0.10;;;;;;;;;;5037700;28;20036;-63
2022/01/11 03:42:09;;;;;;;0.10;0.10;;;;;;;;;;5054065;28;20665;-62
2022/01/11 03:44:34;;;;;;;0.20;0.20;;;;;;;;;;5071805;28;20131;-63
2022/01/11 03:47:02;;;;;;;0.10;0.10;;;;;;;;;;5037704;28;20021;-63
2022/01/11 03:49:27;;;;;;;0.30;0.30;;;;;;;;;;5037767;28;20089;-63
2022/01/11 03:51:53;;;;;;;0.17;0.17;;;;;;;;;;5071906;28;20436;-62
2022/01/11 03:54:42;;;;;;;0.10;0.10;;;;;;;;;;5054061;28;20033;-62
2022/01/11 03:57:16;;;;;;;0.20;0.20;;;;;;;;;;5053998;28;20478;-62
2022/01/11 03:59:44;;;;;;;0.20;0.20;;;;;;;;;;5054123;28;20044;-62
2022/01/11 04:02:10;;;;;;;0.10;0.10;;;;;;;;;;5036475;28;20036;-64
2022/01/11 04:04:36;;;;;;;0.10;0.10;;;;;;;;;;5032392;28;20042;-63
2022/01/11 04:07:02;;;;;;;0.30;0.30;;;;;;;;;;5068171;28;20032;-64
2022/01/11 04:09:28;;;;;;;0.10;0.10;;;;;;;;;;5049966;28;20043;-62
2022/01/11 04:11:54;;;;;;;0.10;0.10;;;;;;;;;;5033748;28;20037;-67
2022/01/11 04:14:22;;;;;;;0.20;0.20;;;;;;;;;;5050194;28;20048;-62
2022/01/11 04:16:49;;;;;;;0.35;0.35;;;;;;;;;;5049789;28;20089;-68
2022/01/11 04:19:14;;;;;;;0.17;0.17;;;;;;;;;;5049916;28;20041;-64
2022/01/11 04:21:40;;;;;;;0.20;0.20;;;;;;;;;;5067406;28;20441;-63
2022/01/11 04:24:08;;;;;;;0.15;0.15;;;;;;;;;;5049494;28;20033;-63
2022/01/11 04:26:33;;;;;;;0.10;0.10;;;;;;;;;;5032818;28;20024;-62
2022/01/11 04:29:04;;;;;;;0.10;0.10;;;;;;;;;;5049508;28;20032;-63
2022/01/11 04:31:29;;;;;;;0.10;0.10;;;;;;;;;;5049306;28;20025;-62
2022/01/11 04:33:55;;;;;;;0.10;0.10;;;;;;;;;;5049601;28;20058;-63
2022/01/11 04:36:21;;;;;;;0.10;0.10;;;;;;;;;;5049357;28;20186;-63
2022/01/11 04:38:46;;;;;;;0.10;0.10;;;;;;;;;;5069398;28;20064;-64
2022/01/11 04:41:14;;;;;;;0.20;0.20;;;;;;;;;;5036811;28;20037;-63
2022/01/11 04:43:43;;;;;;;0.20;0.20;;;;;;;;;;5051089;28;20040;-63
2022/01/11 04:46:09;;;;;;;0.10;0.10;;;;;;;;;;5068537;28;20514;-62
2022/01/11 04:48:35;;;;;;;0.20;0.20;;;;;;;;;;5050208;28;20033;-63
2022/01/11 04:51:04;;;;;;;0.20;0.20;;;;;;;;;;5050591;28;20047;-68
2022/01/11 04:53:30;;;;;;;0.20;0.20;;;;;;;;;;5033700;28;20063;-66
2022/01/11 04:55:57;;;;;;;0.10;0.10;;;;;;;;;;5068823;28;20044;-65
2022/01/11 04:58:23;;;;;;;0.10;0.10;;;;;;;;;;5052245;28;20028;-63
2022/01/11 05:00:49;;;;;;;0.10;0.10;;;;;;;;;;5052142;28;20039;-69
2022/01/11 05:03:15;;;;;;;0.20;0.20;;;;;;;;;;5052574;28;20037;-63
2022/01/11 05:05:41;;;;;;;0.20;0.20;;;;;;;;;;5035884;28;20060;-63
2022/01/11 05:08:07;;;;;;;0.20;0.20;;;;;;;;;;5052597;28;20515;-63
2022/01/11 05:10:33;;;;;;;0.20;0.20;;;;;;;;;;5036213;28;20052;-66
2022/01/11 05:12:58;;;;;;;0.10;0.10;;;;;;;;;;5070629;28;20484;-65
2022/01/11 05:15:25;;;;;;;0.20;0.20;;;;;;;;;;5052088;28;20395;-64
2022/01/11 05:17:52;;;;;;;0.20;0.20;;;;;;;;;;5034635;28;20139;-64
2022/01/11 05:20:19;;;;;;;0.20;0.20;;;;;;;;;;5051505;28;20068;-64
2022/01/11 05:22:45;;;;;;;0.20;0.20;;;;;;;;;;5051336;28;20746;-63
2022/01/11 05:25:12;;;;;;;0.10;0.10;;;;;;;;;;5034664;28;20117;-63
2022/01/11 05:27:38;;;;;;;0.10;0.10;;;;;;;;;;5051412;28;20082;-63
2022/01/11 05:30:06;;;;;;;0.20;0.20;;;;;;;;;;5034872;28;20029;-64
2022/01/11 05:32:32;;;;;;;0.20;0.20;;;;;;;;;;5051845;28;20502;-65
2022/01/11 05:34:58;;;;;;;0.20;0.20;;;;;;;;;;5052483;28;20024;-64
2022/01/11 05:37:23;;;;;;;0.20;0.20;;;;;;;;;;5052348;28;20037;-63
2022/01/11 05:39:53;;;;;;;0.20;0.20;;;;;;;;;;5052194;28;20454;-62
2022/01/11 05:42:19;;;;;;;0.20;0.20;;;;;;;;;;5052139;28;20039;-63
2022/01/11 05:44:45;;;;;;;0.13;0.13;;;;;;;;;;5035244;28;20033;-62
2022/01/11 05:47:11;;;;;;;0.20;0.20;;;;;;;;;;5052311;28;20369;-62
2022/01/11 05:49:36;;;;;;;0.20;0.20;;;;;;;;;;5069492;28;20488;-63
2022/01/11 05:52:02;;;;;;;0.20;0.20;;;;;;;;;;5051459;28;20135;-64
2022/01/11 05:54:28;;;;;;;0.20;0.20;;;;;;;;;;5035558;28;20032;-63
2022/01/11 05:56:55;;;;;;;0.20;0.20;;;;;;;;;;5051604;28;20036;-64
2022/01/11 05:59:21;;;;;;;0.73;0.30;;;;;;;;;;5069420;28;20043;-62
2022/01/11 06:01:46;;;;;;;0.20;0.20;;;;;;;;;;5069673;28;20476;-63
2022/01/11 06:04:11;;;;;;;0.10;0.10;;;;;;;;;;5051671;28;20376;-66
2022/01/11 06:06:37;;;;;;;0.20;0.20;;;;;;;;;;5051239;28;20033;-68
2022/01/11 06:09:03;;;;;;;0.20;0.20;;;;;;;;;;5051948;28;20082;-63
2022/01/11 06:11:31;;;;;;;0.10;0.10;;;;;;;;;;5051531;28;20495;-63
2022/01/11 06:13:57;;;;;;;0.10;0.10;;;;;;;;;;5035049;28;20032;-61
2022/01/11 06:16:23;;;;;;;0.22;0.22;;;;;;;;;;5051503;28;20047;-62
2022/01/11 06:18:50;;;;;;;0.20;0.20;;;;;;;;;;5051217;28;20032;-63
2022/01/11 06:21:26;;;;;;;0.20;0.20;;;;;;;;;;5051456;28;20459;-64
2022/01/11 06:23:52;;;;;;;0.10;0.10;;;;;;;;;;5051000;28;20152;-62
2022/01/11 06:26:18;;;;;;;0.10;0.10;;;;;;;;;;5051088;28;20044;-63
2022/01/11 06:28:44;;;;;;;0.20;0.20;;;;;;;;;;5050972;28;20384;-62
2022/01/11 06:31:10;;;;;;;0.20;0.20;;;;;;;;;;5069212;28;20029;-63
2022/01/11 06:33:36;;;;;;;0.10;0.10;;;;;;;;;;5051334;28;20037;-63
2022/01/11 06:36:02;;;;;;;0.20;0.20;;;;;;;;;;5050699;28;20479;-63
2022/01/11 06:38:28;;;;;;;0.10;0.10;;;;;;;;;;5050922;28;20040;-62
2022/01/11 06:40:54;;;;;;;0.10;0.10;;;;;;;;;;5050724;28;20105;-62
2022/01/11 06:43:21;;;;;;;0.10;0.10;;;;;;;;;;5051300;28;20365;-62
2022/01/11 06:45:47;;;;;;;0.10;0.10;;;;;;;;;;5058729;28;20036;-62
2022/01/11 06:48:17;;;;;;;0.20;0.20;;;;;;;;;;5065637;28;20082;-66
2022/01/11 06:50:42;;;;;;;0.20;0.20;;;;;;;;;;5061823;28;20399;-63
2022/01/11 06:53:09;;;;;;;0.17;0.17;;;;;;;;;;5059025;28;20565;-63
2022/01/11 06:55:39;;;;;;;0.15;0.15;;;;;;;;;;5059747;28;20043;-63
2022/01/11 06:58:05;;;;;;;0.20;0.20;;;;;;;;;;5061413;28;20020;-62
2022/01/11 07:00:31;;;;;;;0.22;0.22;;;;;;;;;;5076659;28;20545;-62
2022/01/11 07:03:03;;;;;;;1.48;0.70;;;;;;;;;;5056752;28;20119;-63
2022/01/11 07:05:46;;;;;;;0.95;0.95;;;;;;;;;;5063386;28;20043;-66
2022/01/11 07:08:12;;;;;;;0.17;0.17;;;;;;;;;;5059234;28;20033;-64
2022/01/11 07:10:39;;;;;;;0.17;0.17;;;;;;;;;;5077026;28;20040;-64
2022/01/11 07:13:05;;;;;;;0.20;0.20;;;;;;;;;;5060866;28;20044;-64
2022/01/11 07:15:31;;;;;;;0.20;0.20;;;;;;;;;;5076659;28;20033;-65
2022/01/11 07:17:57;;;;;;;0.10;0.10;;;;;;;;;;5053242;28;20024;-65
2022/01/11 07:20:23;;;;;;;2.28;1.15;;;;;;;;;;5058308;28;20028;-63
2022/01/11 07:22:49;;;;;;;0.10;0.10;;;;;;;;;;5060451;28;20039;-65
2022/01/11 07:25:15;;;;;;;0.20;0.20;;;;;;;;;;5053235;28;20024;-70
2022/01/11 07:27:41;;;;;;;0.13;0.13;;;;;;;;;;5059194;28;20032;-64
2022/01/11 07:30:09;;;;;;;0.20;0.20;;;;;;;;;;5060142;28;20380;-64
2022/01/11 07:32:41;;;;;;;0.17;0.17;;;;;;;;;;5060092;28;20039;-64
2022/01/11 07:35:07;;;;;;;0.30;0.30;;;;;;;;;;5052350;28;20032;-63
2022/01/11 07:37:33;;;;;;;0.20;0.20;;;;;;;;;;5058873;28;20040;-62
2022/01/11 07:40:01;;;;;;;0.20;0.20;;;;;;;;;;5044994;28;20062;-65
2022/01/11 07:42:29;;;;;;;0.40;0.40;;;;;;;;;;5057685;28;20036;-64
2022/01/11 07:45:10;;;;;;;0.20;0.20;;;;;;;;;;5060980;28;20033;-69
2022/01/11 07:47:36;;;;;;;0.30;0.30;;;;;;;;;;5056663;28;20028;-67
2022/01/11 07:50:03;;;;;;;0.20;0.20;;;;;;;;;;5060102;28;20028;-65
2022/01/11 07:52:29;;;;;;;0.20;0.20;;;;;;;;;;5051770;28;20451;-63
2022/01/11 07:54:57;;;;;;;1.35;1.25;;;;;;;;;;5059996;28;20028;-64
2022/01/11 07:57:24;;;;;;;0.30;0.30;;;;;;;;;;5045199;28;20062;-64
2022/01/11 07:59:51;;;;;;;0.32;0.30;;;;;;;;;;5058064;28;20107;-64
2022/01/11 08:02:17;;;;;;;0.20;0.20;;;;;;;;;;5058865;28;20016;-65
2022/01/11 08:04:43;;;;;;;0.20;0.20;;;;;;;;;;5054423;28;20040;-64
2022/01/11 08:07:10;;;;;;;0.20;0.20;;;;;;;;;;5087562;28;20040;-66
2022/01/11 08:09:48;;;;;;;0.20;0.20;;;;;;;;;;5051504;28;20098;-63
2022/01/11 08:12:13;;;;;;;0.20;0.20;;;;;;;;;;5068874;28;20492;-64
2022/01/11 08:14:40;;;;;;;0.20;0.20;;;;;;;;;;5052885;28;20119;-64
2022/01/11 08:17:06;;;;;;;0.40;0.40;;;;;;;;;;5052769;28;20024;-64
2022/01/11 08:19:32;;;;;;;0.20;0.20;;;;;;;;;;5052912;28;20040;-68
2022/01/11 08:21:59;;;;;;;0.20;0.20;;;;;;;;;;5065344;28;20040;-64
2022/01/11 08:24:34;;;;;;;0.80;0.80;;;;;;;;;;5072836;28;20471;-64
2022/01/11 08:27:00;;;;;;;0.20;0.20;;;;;;;;;;5067221;28;20038;-64
2022/01/11 08:29:25;;;;;;;0.30;0.30;;;;;;;;;;5059867;28;20392;-64
2022/01/11 08:31:57;;;;;;;0.20;0.20;;;;;;;;;;5053262;28;20039;-64
2022/01/11 08:34:23;;;;;;;0.20;0.20;;;;;;;;;;5058900;28;20417;-65
2022/01/11 08:36:50;;;;;;;0.68;0.68;;;;;;;;;;5090401;28;20053;-65
2022/01/11 08:39:17;;;;;;;0.20;0.20;;;;;;;;;;5072679;28;20047;-66
2022/01/11 08:41:43;;;;;;;0.20;0.20;;;;;;;;;;5091129;28;20115;-65
2022/01/11 08:44:12;;;;;;;0.30;0.30;;;;;;;;;;5072613;28;20234;-66
2022/01/11 08:46:40;;;;;;;4.82;4.43;;;;;;;;;;5072697;28;20066;-63
2022/01/11 08:49:13;;;;;;;0.20;0.20;;;;;;;;;;5068917;28;20402;-64
2022/01/11 08:51:40;;;;;;;0.20;0.20;;;;;;;;;;5070047;28;20036;-64
2022/01/11 08:54:05;;;;;;;1.17;1.08;;;;;;;;;;5070321;28;20059;-65
2022/01/11 08:56:32;;;;;;;0.10;0.10;;;;;;;;;;5052276;28;20878;-64
2022/01/11 08:58:58;;;;;;;0.17;0.17;;;;;;;;;;5052210;28;20487;-64
2022/01/11 09:01:31;;;;;;;0.30;0.30;;;;;;;;;;5056022;28;20032;-64
2022/01/11 09:03:58;;;;;;;0.43;0.43;;;;;;;;;;5072156;28;20080;-64
2022/01/11 09:06:24;;;;;;;0.22;0.22;;;;;;;;;;5072901;28;20040;-65
2022/01/11 09:08:52;;;;;;;0.50;0.50;;;;;;;;;;5052644;28;20721;-65
2022/01/11 09:11:17;;;;;;;0.20;0.20;;;;;;;;;;5076536;28;20410;-67
2022/01/11 09:13:44;;;;;;;0.20;0.20;;;;;;;;;;5071670;28;20044;-64
2022/01/11 09:16:11;;;;;;;0.20;0.20;;;;;;;;;;5079217;28;20036;-64
2022/01/11 09:18:38;;;;;;;0.73;0.73;;;;;;;;;;5035799;28;20036;-66
2022/01/11 09:21:04;;;;;;;0.20;0.20;;;;;;;;;;5051963;28;20440;-66
2022/01/11 09:23:31;;;;;;;0.30;0.30;;;;;;;;;;5050908;28;20032;-65
2022/01/11 09:25:56;;;;;;;0.20;0.20;;;;;;;;;;5049965;28;20400;-69
2022/01/11 09:28:22;;;;;;;0.93;0.93;;;;;;;;;;5069859;28;20028;-64
2022/01/11 09:30:48;;;;;;;0.85;0.85;;;;;;;;;;5080582;28;20040;-64
2022/01/11 09:33:16;;;;;;;0.22;0.22;;;;;;;;;;5033770;28;20085;-64
2022/01/11 09:35:42;;;;;;;0.20;0.20;;;;;;;;;;5050492;28;20036;-68
2022/01/11 09:38:15;;;;;;;0.65;0.65;;;;;;;;;;5050816;28;20332;-64
2022/01/11 09:40:42;;;;;;;0.28;0.28;;;;;;;;;;5035623;28;20081;-63
2022/01/11 09:43:09;;;;;;;0.52;0.52;;;;;;;;;;5051952;28;20490;-64
2022/01/11 09:45:35;;;;;;;0.22;0.22;;;;;;;;;;5085940;28;20036;-65
2022/01/11 09:48:01;;;;;;;0.28;0.28;;;;;;;;;;5054081;28;20506;-64
2022/01/11 09:50:29;;;;;;;0.38;0.38;;;;;;;;;;5072002;28;20442;-64
2022/01/11 09:53:03;;;;;;;0.20;0.20;;;;;;;;;;5071716;28;20052;-64
2022/01/11 09:55:31;;;;;;;0.20;0.20;;;;;;;;;;5071272;28;20182;-69
2022/01/11 09:57:57;;;;;;;0.20;0.20;;;;;;;;;;5070905;28;20154;-63
2022/01/11 10:00:53;;;;;;;0.20;0.20;;;;;;;;;;5073335;28;20055;-66
2022/01/11 10:03:57;;;;;;;0.28;0.28;;;;;;;;;;5038646;28;20091;-64
2022/01/11 10:06:27;;;;;;;0.20;0.20;;;;;;;;;;5071191;28;20064;-65
2022/01/11 10:09:13;;;;;;;0.22;0.22;;;;;;;;;;5063789;28;20063;-65
2022/01/11 10:11:49;;;;;;;0.20;0.20;;;;;;;;;;5054003;28;20503;-64
2022/01/11 10:14:21;;;;;;;0.20;0.20;;;;;;;;;;5062229;28;20056;-65
2022/01/11 10:16:46;;;;;;;0.20;0.20;;;;;;;;;;5059296;28;20112;-65
2022/01/11 10:19:38;;;;;;;0.32;0.32;;;;;;;;;;5078626;28;20107;-64
2022/01/11 10:22:06;;;;;;;0.10;0.10;;;;;;;;;;5042904;28;20036;-64
2022/01/11 10:24:35;;;;;;;0.20;0.20;;;;;;;;;;5061035;28;20511;-65
2022/01/11 10:27:12;;;;;;;0.20;0.20;;;;;;;;;;5060001;28;20048;-64
2022/01/11 10:29:40;;;;;;;0.20;0.20;;;;;;;;;;5057057;28;20044;-65
2022/01/11 10:32:11;;;;;;;0.20;0.20;;;;;;;;;;5044318;28;20023;-69
2022/01/11 10:34:37;;;;;;;0.20;0.20;;;;;;;;;;5059360;28;20126;-64
2022/01/11 10:37:04;;;;;;;0.13;0.13;;;;;;;;;;5061591;28;20037;-63
2022/01/11 10:39:32;;;;;;;0.20;0.20;;;;;;;;;;5067354;28;20112;-63
2022/01/11 10:42:02;;;;;;;0.20;0.20;;;;;;;;;;5055302;28;20041;-66
2022/01/11 10:44:42;;;;;;;0.10;0.10;;;;;;;;;;5056358;28;20040;-62
2022/01/11 10:47:07;;;;;;;0.10;0.10;;;;;;;;;;5051685;28;20040;-65
2022/01/11 10:49:35;;;;;;;0.20;0.20;;;;;;;;;;5059878;28;20050;-68
2022/01/11 10:52:18;;;;;;;0.20;0.20;;;;;;;;;;5045476;28;20028;-64
2022/01/11 10:54:48;;;;;;;0.20;0.20;;;;;;;;;;5054160;28;20571;-63
2022/01/11 10:57:19;;;;;;;1.70;1.65;;;;;;;;;;5053616;28;20391;-63
2022/01/11 11:00:04;;;;;;;0.30;0.30;;;;;;;;;;5077374;28;20036;-66
2022/01/11 11:02:30;;;;;;;0.30;0.30;;;;;;;;;;5056234;28;20490;-65
2022/01/11 11:04:58;;;;;;;0.30;0.30;;;;;;;;;;5058123;28;20028;-65
2022/01/11 11:07:26;;;;;;;0.20;0.20;;;;;;;;;;5060615;28;20048;-69
2022/01/11 11:10:02;;;;;;;0.20;0.20;;;;;;;;;;5060065;28;20028;-65
2022/01/11 11:12:28;;;;;;;1.38;1.20;;;;;;;;;;5061196;28;20048;-64
2022/01/11 11:15:10;;;;;;;1.33;1.15;;;;;;;;;;5058164;28;20063;-65
2022/01/11 11:17:39;;;;;;;0.20;0.20;;;;;;;;;;5076477;28;20084;-65
2022/01/11 11:20:16;;;;;;;0.20;0.20;;;;;;;;;;5057344;28;20032;-65
2022/01/11 11:22:42;;;;;;;0.20;0.20;;;;;;;;;;5078692;28;20050;-65
2022/01/11 11:25:07;;;;;;;0.28;0.28;;;;;;;;;;5073610;28;20458;-64
2022/01/11 11:27:33;;;;;;;0.52;0.52;;;;;;;;;;5075180;28;20036;-65
2022/01/11 11:30:02;;;;;;;0.20;0.20;;;;;;;;;;5060297;28;20024;-63
2022/01/11 11:32:29;;;;;;;0.60;0.60;;;;;;;;;;5050391;28;20024;-62
2022/01/11 11:34:55;;;;;;;0.20;0.20;;;;;;;;;;5069746;28;20491;-65
2022/01/11 11:37:35;;;;;;;0.90;0.90;;;;;;;;;;5053957;28;20043;-67
2022/01/11 11:40:06;;;;;;;2.55;1.70;;;;;;;;;;5069078;28;20047;-68
2022/01/11 11:42:32;;;;;;;0.20;0.20;;;;;;;;;;5086299;28;20326;-64
2022/01/11 11:44:59;;;;;;;0.20;0.20;;;;;;;;;;5052442;28;20039;-64
2022/01/11 11:47:30;;;;;;;0.20;0.20;;;;;;;;;;5051240;28;20382;-71
2022/01/11 11:49:57;;;;;;;0.20;0.20;;;;;;;;;;5037509;28;20033;-71
2022/01/11 11:52:22;;;;;;;0.20;0.20;;;;;;;;;;5046827;28;20040;-69
2022/01/11 11:54:49;;;;;;;0.30;0.30;;;;;;;;;;5059148;28;20028;-71
2022/01/11 11:57:15;;;;;;;0.20;0.20;;;;;;;;;;5039509;28;20099;-71
2022/01/11 11:59:49;;;;;;;0.20;0.20;;;;;;;;;;5037676;28;20036;-71
2022/01/11 12:02:29;;;;;;;0.30;0.30;;;;;;;;;;5053627;28;20040;-71
2022/01/11 12:04:54;;;;;;;;;;;;;;;;;;5073502;28;20047;-71
2022/01/11 12:07:32;;;;;;;0.20;0.20;;;;;;;;;;5092266;28;19916;-70
2022/01/11 12:09:58;;;;;;;0.30;0.30;;;;;;;;;;5069260;28;20040;-71
2022/01/11 12:12:59;;;;;;;0.20;0.20;;;;;;;;;;5070198;28;20433;-71
2022/01/11 12:15:31;;;;;;;0.30;0.30;;;;;;;;;;5006917;28;20537;-71
2022/01/11 12:17:57;;;;;;;0.20;0.20;;;;;;;;;;5025577;28;20044;-71
2022/01/11 12:20:41;;;;;;;0.20;0.20;;;;;;;;;;5051708;28;20123;-71
2022/01/11 12:23:07;;;;;;;0.20;0.20;;;;;;;;;;5069053;28;20039;-71
2022/01/11 12:25:42;;;;;;;0.40;0.40;;;;;;;;;;5051542;28;20327;-71
2022/01/11 12:28:15;;;;;;;0.20;0.20;;;;;;;;;;5036297;28;20518;-70
2022/01/11 12:30:40;;;;;;;0.20;0.20;;;;;;;;;;5035457;28;20568;-71
2022/01/11 12:33:28;;;;;;;0.20;0.20;;;;;;;;;;5068890;28;20115;-72
2022/01/11 12:35:53;;;;;;;0.20;0.20;;;;;;;;;;5069201;28;20032;-72
2022/01/11 12:38:19;;;;;;;0.20;0.20;;;;;;;;;;5051219;28;20128;-69
2022/01/11 12:40:45;;;;;;;0.20;0.20;;;;;;;;;;5034350;28;20091;-72
2022/01/11 12:43:17;;;;;;;0.20;0.20;;;;;;;;;;5068787;28;20036;-72
2022/01/11 12:46:03;;;;;;;0.30;0.30;;;;;;;;;;5035108;28;20067;-70
2022/01/11 12:48:45;;;;;;;0.30;0.30;;;;;;;;;;5036498;28;20039;-72
2022/01/11 12:51:19;;;;;;;2.90;0.80;;;;;;;;;;5081265;28;20055;-72
2022/01/11 12:53:45;;;;;;;1.58;1.33;;;;;;;;;;5072580;28;20043;-72
2022/01/11 12:56:10;;;;;;;0.77;0.77;;;;;;;;;;5080939;28;20395;-72
2022/01/11 12:58:36;;;;;;;2.63;1.55;;;;;;;;;;5064639;28;20089;-72
2022/01/11 13:01:22;;;;;;;2.50;1.50;;;;;;;;;;5056011;28;20051;-74
2022/01/11 13:03:48;;;;;;;2.60;1.10;;;;;;;;;;5089942;28;20094;-72
2022/01/11 13:06:14;;;;;;;0.30;0.30;;;;;;;;;;5066341;28;20646;-71
2022/01/11 13:08:42;;;;;;;0.30;0.30;;;;;;;;;;5069810;28;20033;-72
2022/01/11 13:11:19;;;;;;;0.20;0.20;;;;;;;;;;5051634;28;20036;-71
2022/01/11 13:13:55;;;;;;;3.22;1.65;;;;;;;;;;5036794;28;20873;-72
2022/01/11 13:16:27;;;;;;;0.20;0.20;;;;;;;;;;5069389;28;20040;-70
2022/01/11 13:18:52;;;;;;;0.30;0.30;;;;;;;;;;5053451;28;20036;-70
2022/01/11 13:21:21;;;;;;;1.92;1.55;;;;;;;;;;5070677;28;20040;-70
2022/01/11 13:23:59;;;;;;;0.40;0.40;;;;;;;;;;5088515;28;20426;-70
2022/01/11 13:26:30;;;;;;;0.30;0.30;;;;;;;;;;5066459;28;20430;-71
2022/01/11 13:28:57;;;;;;;0.60;0.52;;;;;;;;;;5053623;28;20028;-72
2022/01/11 13:31:24;;;;;;;1.95;1.35;;;;;;;;;;5089772;28;20043;-70
2022/01/11 13:33:51;;;;;;;2.92;1.48;;;;;;;;;;5088587;28;20103;-71
2022/01/11 13:36:18;;;;;;;0.30;0.30;;;;;;;;;;5053119;28;20440;-71
2022/01/11 13:38:48;;;;;;;0.30;0.30;;;;;;;;;;5051836;28;20058;-71
2022/01/11 13:41:14;;;;;;;1.70;1.60;;;;;;;;;;5051103;28;20020;-71
2022/01/11 13:43:41;;;;;;;0.32;0.32;;;;;;;;;;5066261;28;20032;-71
2022/01/11 13:46:16;;;;;;;0.30;0.30;;;;;;;;;;5051206;28;20556;-71
2022/01/11 13:48:43;;;;;;;0.38;0.38;;;;;;;;;;5052364;28;20039;-70
2022/01/11 13:51:10;;;;;;;1.17;0.60;;;;;;;;;;5052986;28;20056;-71
2022/01/11 13:53:38;;;;;;;0.30;0.30;;;;;;;;;;5070896;28;20038;-71
2022/01/11 13:56:08;;;;;;;0.95;0.95;;;;;;;;;;5071712;28;20024;-71
2022/01/11 13:58:38;;;;;;;0.28;0.28;;;;;;;;;;5054833;28;20093;-70
2022/01/11 14:01:05;;;;;;;0.50;0.50;;;;;;;;;;5054941;28;20479;-71
2022/01/11 14:03:31;;;;;;;0.20;0.20;;;;;;;;;;5089979;28;20119;-69
2022/01/11 14:05:57;;;;;;;0.30;0.30;;;;;;;;;;5055292;28;20185;-69
2022/01/11 14:08:30;;;;;;;0.28;0.28;;;;;;;;;;5089957;28;20036;-69
2022/01/11 14:11:06;;;;;;;0.25;0.25;;;;;;;;;;5038343;28;20494;-70
2022/01/11 14:13:31;;;;;;;2.72;1.63;;;;;;;;;;5034397;28;20056;-70
2022/01/11 14:15:57;;;;;;;0.30;0.30;;;;;;;;;;5068109;28;20068;-70
2022/01/11 14:18:26;;;;;;;0.30;0.30;;;;;;;;;;5032724;28;20037;-71
2022/01/11 14:21:03;;;;;;;0.20;0.20;;;;;;;;;;5031560;28;20518;-71
2022/01/11 14:23:28;;;;;;;0.20;0.20;;;;;;;;;;5047825;28;20418;-72
2022/01/11 14:25:55;;;;;;;0.90;0.90;;;;;;;;;;5065956;28;20078;-70
2022/01/11 14:28:28;;;;;;;0.28;0.28;;;;;;;;;;5030295;28;20090;-73
2022/01/11 14:30:56;;;;;;;0.20;0.20;;;;;;;;;;5029713;28;20040;-72
2022/01/11 14:33:25;;;;;;;0.30;0.30;;;;;;;;;;5029609;28;20422;-72
2022/01/11 14:35:58;;;;;;;0.20;0.20;;;;;;;;;;5030319;28;20098;-72
2022/01/11 14:38:56;;;;;;;0.20;0.20;;;;;;;;;;5032449;28;20067;-72
2022/01/11 14:41:24;;;;;;;0.28;0.28;;;;;;;;;;4999133;28;20045;-72
2022/01/11 14:43:55;;;;;;;0.20;0.20;;;;;;;;;;5065377;28;20533;-72
2022/01/11 14:46:21;;;;;;;0.28;0.28;;;;;;;;;;5066962;28;20028;-72
2022/01/11 14:48:47;;;;;;;0.20;0.20;;;;;;;;;;5048984;28;20483;-72
2022/01/11 14:51:17;;;;;;;0.20;0.20;;;;;;;;;;5067208;28;20159;-72
2022/01/11 14:53:45;;;;;;;1.25;0.90;;;;;;;;;;5048980;28;20569;-72